Terminal Aerodrome Forecast
Issued by NWS Wilmington, NC

Home | Current Version | Previous Version | Text Only | Print | Product List | Glossary On
Versions: 1 2 3 4 5 6 7 8 9 10 11 12 13 14 15 16 17 18
141
FTUS42 KILM 222341 CCB
TAFILM
TAF COR
KILM 222341Z 2300/2324 13004KT P6SM BKN090
     FM230300 00000KT P6SM SCT250
      TEMPO 2308/2312 4SM BR
     FM231300 04006KT P6SM SCT040
     FM232000 09007KT P6SM SCT250=

USA.gov is the U.S. government's official web portal to all federal, state and local government web resources and services.